WSSS/SIN METAR and TAF weather

Enter ICAO airport designator
Station Type Date Time Source
WSSS METAR 2020/09/26 22:30 UTC NOAA

WSSS 262230Z VRB03KT 6000 -RA FEW014 BKN150 25/23 Q1010 NOSIG


Station Type Date Time Source
WSSS Decoded METAR 2020/09/26 22:30 UTC NOAA

Singapore / Changi Airport, Singapore (WSSS) 01-22N 103-59E 16M
Sep 26, 2020 - 06:30 PM EDT / 2020.09.26 2230 UTC
Wind: Variable at 3 MPH (3 KT):0
Visibility: 3 mile(s):0
Sky conditions: mostly cloudy
Weather: light rain
Temperature: 77 F (25 C)
Dew Point: 73 F (23 C)
Relative Humidity: 88%
Pressure (altimeter): 29.83 in. Hg (1010 hPa)
ob: WSSS 262230Z VRB03KT 6000 -RA FEW014 BKN150 25/23 Q1010 NOSIG
cycle: 22

Station Type Date Time Source
WSSS TAF 2020/09/26 18:06 UTC NOAA

TAF WSSS 261700Z 2618/2800 22008KT 9999 FEW015 SCT020

Example: see airport list